createdAt,value
2022-12-15T00:00:59.600Z,57.36
2022-12-15T00:03:26.120Z,58.70
2022-12-15T00:05:52.616Z,58.73
2022-12-15T00:08:18.952Z,58.54
2022-12-15T00:10:45.316Z,59.17
2022-12-15T00:13:11.646Z,59.49
2022-12-15T00:15:38.045Z,58.79
2022-12-15T00:18:04.530Z,59.04
2022-12-15T00:20:30.914Z,58.46
2022-12-15T00:22:57.306Z,58.75
2022-12-15T00:25:23.640Z,58.55
2022-12-15T00:27:49.976Z,58.72
2022-12-15T00:30:16.318Z,58.05
2022-12-15T00:32:42.648Z,58.41
2022-12-15T00:35:09.015Z,58.88
2022-12-15T00:37:35.400Z,59.05
2022-12-15T00:40:01.778Z,58.48
2022-12-15T00:42:28.120Z,58.37
2022-12-15T00:44:54.493Z,58.22
2022-12-15T00:47:20.823Z,57.01
2022-12-15T00:49:47.159Z,58.97
2022-12-15T00:52:13.525Z,58.59
2022-12-15T00:54:39.901Z,58.38
2022-12-15T00:57:06.305Z,58.15
2022-12-15T00:59:32.686Z,59.06
2022-12-15T01:01:59.221Z,58.36
2022-12-15T01:04:25.663Z,57.80
2022-12-15T01:06:52.061Z,59.21
2022-12-15T01:09:18.395Z,58.05
2022-12-15T01:11:44.765Z,57.21
2022-12-15T01:14:11.151Z,59.20
2022-12-15T01:16:37.626Z,58.67
2022-12-15T01:19:04.054Z,58.74
2022-12-15T01:21:30.380Z,58.36
2022-12-15T01:23:56.739Z,59.24
2022-12-15T01:26:23.071Z,59.02
2022-12-15T01:28:49.447Z,58.44
2022-12-15T01:31:15.922Z,58.57
2022-12-15T01:33:42.338Z,58.43
2022-12-15T01:36:08.713Z,59.02
2022-12-15T01:38:35.047Z,58.21
2022-12-15T01:41:01.370Z,56.30
2022-12-15T01:43:27.794Z,56.04
2022-12-15T01:45:54.248Z,56.67
2022-12-15T01:48:20.613Z,57.36
2022-12-15T01:50:46.990Z,57.02
2022-12-15T01:53:13.368Z,57.08
2022-12-15T01:55:39.750Z,58.40
2022-12-15T01:58:06.133Z,58.86
2022-12-15T02:00:32.600Z,57.25
2022-12-15T02:02:59.132Z,59.96
2022-12-15T02:05:25.593Z,55.67
2022-12-15T02:07:51.929Z,57.43
2022-12-15T02:10:18.271Z,60.00
2022-12-15T02:12:44.600Z,60.37
2022-12-15T02:15:10.977Z,61.08
2022-12-15T02:17:37.319Z,57.85
2022-12-15T02:20:03.668Z,56.03
2022-12-15T02:22:29.995Z,54.81
2022-12-15T02:24:56.373Z,57.38
2022-12-15T02:27:22.764Z,59.02
2022-12-15T02:29:49.116Z,56.54
2022-12-15T02:32:15.445Z,56.30
2022-12-15T02:34:41.775Z,60.15
2022-12-15T02:37:08.099Z,59.75
2022-12-15T02:39:34.423Z,58.90
2022-12-15T02:42:00.759Z,57.62
2022-12-15T02:44:27.129Z,57.97
2022-12-15T02:46:53.511Z,57.80
2022-12-15T02:49:19.850Z,57.35
2022-12-15T02:51:46.179Z,57.25
2022-12-15T02:54:12.522Z,58.37
2022-12-15T02:56:38.861Z,57.42
2022-12-15T02:59:05.245Z,56.63
2022-12-15T03:01:31.755Z,58.97
2022-12-15T03:03:58.210Z,58.79
2022-12-15T03:06:24.581Z,58.88
2022-12-15T03:08:50.962Z,59.01
2022-12-15T03:11:17.294Z,58.42
2022-12-15T03:13:43.657Z,57.26
2022-12-15T03:16:10.057Z,56.90
2022-12-15T03:18:36.428Z,57.20
2022-12-15T03:21:02.748Z,57.55
2022-12-15T03:23:29.620Z,57.42
2022-12-15T03:25:56.327Z,57.96
2022-12-15T03:28:22.705Z,58.66
2022-12-15T03:30:50.306Z,57.13
2022-12-15T03:33:17.058Z,57.31
2022-12-15T03:35:43.382Z,59.60
2022-12-15T03:38:09.750Z,59.00
2022-12-15T03:40:36.139Z,56.64
2022-12-15T03:43:02.519Z,58.65
2022-12-15T03:45:28.855Z,61.00
2022-12-15T03:47:55.188Z,61.78
2022-12-15T03:50:21.515Z,60.94
2022-12-15T03:52:47.891Z,59.43
2022-12-15T03:55:14.265Z,58.12
2022-12-15T03:57:40.609Z,57.47
2022-12-15T04:00:06.968Z,58.57
2022-12-15T04:02:33.462Z,58.97
2022-12-15T04:04:59.938Z,57.15
2022-12-15T04:07:26.320Z,59.33
2022-12-15T04:09:52.714Z,58.86
2022-12-15T04:12:19.048Z,58.06
2022-12-15T04:14:45.421Z,58.50
2022-12-15T04:17:11.844Z,58.08
2022-12-15T04:19:38.211Z,58.40
2022-12-15T04:22:04.587Z,57.41
2022-12-15T04:24:30.967Z,57.05
2022-12-15T04:26:57.300Z,57.55
2022-12-15T04:29:23.674Z,56.16
2022-12-15T04:31:50.016Z,55.50
2022-12-15T04:34:16.351Z,56.49
2022-12-15T04:36:42.676Z,56.86
2022-12-15T04:39:09.008Z,56.16
2022-12-15T04:41:35.348Z,55.01
2022-12-15T04:44:01.676Z,56.18
2022-12-15T04:46:28.090Z,58.13
2022-12-15T04:48:54.440Z,57.76
2022-12-15T04:51:22.735Z,55.96
2022-12-15T04:53:50.296Z,56.66
2022-12-15T04:56:18.675Z,58.60
2022-12-15T04:58:45.247Z,60.20
2022-12-15T05:01:11.639Z,60.53
2022-12-15T05:03:38.042Z,60.55
2022-12-15T05:06:04.379Z,58.45
2022-12-15T05:08:30.703Z,58.58
2022-12-15T05:10:57.028Z,57.51
2022-12-15T05:13:23.397Z,57.30
2022-12-15T05:15:49.943Z,55.58
2022-12-15T05:18:16.339Z,58.02
2022-12-15T05:20:42.875Z,56.30
2022-12-15T05:23:09.204Z,55.57
2022-12-15T05:25:35.571Z,57.71
2022-12-15T05:28:01.955Z,57.90
2022-12-15T05:30:28.342Z,56.60
2022-12-15T05:32:54.715Z,57.66
2022-12-15T05:35:21.108Z,55.93
2022-12-15T05:37:47.557Z,56.29
2022-12-15T05:40:13.896Z,56.33
2022-12-15T05:42:40.291Z,56.61
2022-12-15T05:45:06.694Z,56.02
2022-12-15T05:47:33.063Z,56.57
2022-12-15T05:49:59.438Z,55.72
2022-12-15T05:52:25.781Z,55.78
2022-12-15T05:54:52.107Z,56.03
2022-12-15T05:57:18.481Z,56.36
2022-12-15T05:59:44.878Z,56.17
2022-12-15T06:02:11.305Z,56.33
2022-12-15T06:04:37.800Z,55.10
2022-12-15T06:07:04.254Z,54.09
2022-12-15T06:09:30.597Z,55.22
2022-12-15T06:11:56.932Z,55.42
2022-12-15T06:14:23.303Z,55.83
2022-12-15T06:16:50.259Z,55.75
2022-12-15T06:19:17.606Z,55.06
2022-12-15T06:21:44.007Z,55.37
2022-12-15T06:24:10.403Z,54.70
2022-12-15T06:26:36.792Z,56.34
2022-12-15T06:29:03.177Z,56.27
2022-12-15T06:31:29.553Z,56.00
2022-12-15T06:34:01.429Z,54.40
2022-12-15T06:36:28.755Z,55.09
2022-12-15T06:38:55.153Z,54.91
2022-12-15T06:41:21.509Z,53.75
2022-12-15T06:43:47.836Z,54.56
2022-12-15T06:46:14.232Z,55.10
2022-12-15T06:48:40.671Z,55.24
2022-12-15T06:51:10.805Z,57.34
2022-12-15T06:53:41.450Z,57.46
2022-12-15T06:56:07.794Z,57.60
2022-12-15T06:58:34.152Z,57.30
2022-12-15T07:01:00.499Z,54.62
2022-12-15T07:03:27.069Z,54.25
2022-12-15T07:05:53.524Z,54.29
2022-12-15T07:08:19.862Z,54.53
2022-12-15T07:10:46.184Z,56.06
2022-12-15T07:13:12.536Z,56.01
2022-12-15T07:15:38.871Z,57.18
2022-12-15T07:18:05.245Z,56.88
2022-12-15T07:20:31.612Z,56.79
2022-12-15T07:22:58.015Z,56.92
2022-12-15T07:25:24.342Z,55.23
2022-12-15T07:27:50.881Z,54.48
2022-12-15T07:30:17.265Z,55.02
2022-12-15T07:32:43.601Z,56.71
2022-12-15T07:35:16.349Z,57.04
2022-12-15T07:37:42.728Z,56.30
2022-12-15T07:40:09.105Z,55.94
2022-12-15T07:42:35.459Z,56.32
2022-12-15T07:45:01.797Z,56.55
2022-12-15T07:47:28.136Z,55.08
2022-12-15T07:49:54.470Z,55.04
2022-12-15T07:52:20.809Z,55.19
2022-12-15T07:54:47.140Z,54.93
2022-12-15T07:57:13.513Z,55.47
2022-12-15T07:59:39.851Z,55.55
2022-12-15T08:02:06.353Z,55.31
2022-12-15T08:04:32.946Z,55.58
2022-12-15T08:06:59.332Z,54.95
2022-12-15T08:09:25.717Z,54.78
2022-12-15T08:11:52.072Z,54.71
2022-12-15T08:14:19.027Z,54.75
2022-12-15T08:16:45.707Z,54.15
2022-12-15T08:19:12.147Z,54.23
2022-12-15T08:21:38.496Z,54.19
2022-12-15T08:24:04.828Z,53.30
2022-12-15T08:26:31.723Z,53.90
2022-12-15T08:29:11.876Z,54.47
2022-12-15T08:31:44.146Z,53.68
2022-12-15T08:34:10.517Z,54.39
2022-12-15T08:36:36.856Z,54.52
2022-12-15T08:39:03.222Z,54.44
2022-12-15T08:41:29.619Z,54.49
2022-12-15T08:43:56.005Z,54.56
2022-12-15T08:46:22.555Z,54.79
2022-12-15T08:48:48.963Z,55.70
2022-12-15T08:51:15.299Z,55.36
2022-12-15T08:53:41.734Z,55.21
2022-12-15T08:56:08.146Z,56.26
2022-12-15T08:58:34.499Z,57.70
2022-12-15T09:01:00.908Z,58.94
2022-12-15T09:03:27.401Z,58.58
2022-12-15T09:05:53.835Z,58.76
2022-12-15T09:08:20.175Z,58.71
2022-12-15T09:10:46.510Z,59.38
2022-12-15T09:13:18.859Z,59.36
2022-12-15T09:16:08.904Z,59.27
2022-12-15T09:18:31.526Z,59.67
2022-12-15T09:20:57.914Z,59.46
2022-12-15T09:23:24.300Z,59.93
2022-12-15T09:25:50.684Z,62.43
2022-12-15T09:28:17.043Z,61.94
2022-12-15T09:30:43.515Z,62.48
2022-12-15T09:33:09.925Z,65.35
2022-12-15T09:35:36.283Z,65.07
2022-12-15T09:38:02.656Z,64.41
2022-12-15T09:40:29.008Z,65.61
2022-12-15T09:43:25.620Z,63.72
2022-12-15T09:45:41.770Z,65.40
2022-12-15T09:48:08.186Z,64.50
2022-12-15T09:50:34.561Z,65.14
2022-12-15T09:53:00.938Z,63.92
2022-12-15T09:55:27.362Z,64.79
2022-12-15T09:57:53.711Z,62.95
2022-12-15T10:00:20.643Z,63.67
2022-12-15T10:02:47.136Z,62.63
2022-12-15T10:05:16.234Z,61.74
2022-12-15T10:07:42.633Z,61.77
2022-12-15T10:10:09.030Z,62.33
2022-12-15T10:12:35.368Z,60.54
2022-12-15T10:15:01.736Z,61.60
2022-12-15T10:17:28.094Z,61.26
2022-12-15T10:19:54.452Z,62.01
2022-12-15T10:22:20.786Z,61.24
2022-12-15T10:27:33.499Z,62.49
2022-12-15T10:29:59.919Z,62.68
2022-12-15T10:32:26.364Z,61.79
2022-12-15T10:34:52.798Z,62.61
2022-12-15T10:37:19.289Z,63.50
2022-12-15T10:39:45.670Z,63.29
2022-12-15T10:42:16.643Z,64.67
2022-12-15T10:44:43.050Z,64.58
2022-12-15T10:47:09.450Z,64.59
2022-12-15T10:49:35.845Z,65.60
2022-12-15T10:52:02.178Z,66.17
2022-12-15T10:54:28.565Z,67.17
2022-12-15T10:56:54.950Z,68.18
2022-12-15T10:59:21.344Z,67.75
2022-12-15T11:01:47.811Z,67.47
2022-12-15T11:04:17.478Z,66.73
2022-12-15T11:06:43.847Z,66.60
2022-12-15T11:09:11.526Z,67.12
2022-12-15T11:11:37.933Z,66.75
2022-12-15T11:14:04.339Z,66.86
2022-12-15T11:16:30.690Z,67.19
2022-12-15T11:18:57.070Z,67.63
2022-12-15T11:21:23.451Z,68.16
2022-12-15T11:23:50.352Z,67.02
2022-12-15T11:26:16.846Z,66.65
2022-12-15T11:28:43.241Z,65.41
2022-12-15T11:31:09.619Z,64.96
2022-12-15T11:33:36.307Z,66.17
2022-12-15T11:36:02.842Z,64.99
2022-12-15T11:38:29.257Z,66.30
2022-12-15T11:40:55.665Z,66.68
2022-12-15T11:43:22.049Z,67.77
2022-12-15T11:45:48.416Z,68.30
2022-12-15T11:48:15.363Z,68.01
2022-12-15T11:50:41.739Z,69.02
2022-12-15T11:53:08.128Z,68.57
2022-12-15T11:55:40.855Z,69.33
2022-12-15T11:58:07.672Z,69.86
2022-12-15T12:00:34.041Z,69.45
2022-12-15T12:03:00.452Z,70.68
2022-12-15T12:05:26.913Z,70.95
2022-12-15T12:07:53.449Z,70.57
2022-12-15T12:10:19.869Z,70.68
2022-12-15T12:12:46.245Z,70.77
2022-12-15T12:15:16.885Z,69.93
2022-12-15T12:17:43.243Z,69.49
2022-12-15T12:20:11.463Z,69.55
2022-12-15T12:22:38.078Z,69.07
2022-12-15T12:25:04.502Z,69.64
2022-12-15T12:27:30.849Z,69.92
2022-12-15T12:29:57.189Z,70.03
2022-12-15T12:32:23.539Z,71.05
2022-12-15T12:34:51.129Z,70.04
2022-12-15T12:37:17.715Z,70.40
2022-12-15T12:39:44.051Z,70.18
2022-12-15T12:42:11.627Z,70.32
2022-12-15T12:44:37.960Z,70.45
2022-12-15T12:47:04.286Z,69.19
2022-12-15T12:49:30.640Z,68.74
2022-12-15T12:51:57.001Z,67.56
2022-12-15T12:54:23.370Z,68.31
2022-12-15T12:59:36.159Z,65.53
2022-12-15T13:02:02.622Z,64.84
2022-12-15T13:04:29.057Z,66.27
2022-12-15T13:06:55.400Z,66.08
2022-12-15T13:09:21.740Z,65.31
2022-12-15T13:11:49.124Z,65.00
2022-12-15T13:14:21.056Z,65.05
2022-12-15T13:17:17.206Z,66.47
2022-12-15T13:19:36.893Z,65.58
2022-12-15T13:22:03.322Z,67.33
2022-12-15T13:24:29.663Z,67.87
2022-12-15T13:26:56.045Z,67.41
2022-12-15T13:29:22.385Z,67.70
2022-12-15T13:31:49.209Z,66.34
2022-12-15T13:34:15.689Z,66.72
2022-12-15T13:36:42.035Z,67.07
2022-12-15T13:39:08.377Z,66.15
2022-12-15T13:41:34.781Z,66.85
2022-12-15T13:44:01.170Z,67.09
2022-12-15T13:46:27.689Z,66.59
2022-12-15T13:48:54.190Z,65.14
2022-12-15T13:51:20.638Z,64.71
2022-12-15T13:53:51.679Z,64.63
2022-12-15T13:56:18.327Z,63.49
2022-12-15T13:58:44.700Z,63.16
2022-12-15T14:01:11.923Z,63.11
2022-12-15T14:03:38.611Z,63.68
2022-12-15T14:06:05.274Z,62.79
2022-12-15T14:08:31.616Z,63.60
2022-12-15T14:10:58.025Z,64.23
2022-12-15T14:13:24.418Z,63.41
2022-12-15T14:15:51.076Z,62.63
2022-12-15T14:18:17.437Z,62.27
2022-12-15T14:20:43.772Z,61.44
2022-12-15T14:23:10.105Z,60.92
2022-12-15T14:25:36.563Z,62.70
2022-12-15T14:28:05.459Z,63.84
2022-12-15T14:30:34.139Z,65.31
2022-12-15T14:33:00.522Z,65.76
2022-12-15T14:35:26.863Z,64.62
2022-12-15T14:37:53.210Z,63.25
2022-12-15T14:40:24.989Z,63.36
2022-12-15T14:42:54.723Z,62.68
2022-12-15T14:45:21.059Z,61.54
2022-12-15T14:48:05.792Z,60.71
2022-12-15T14:50:33.760Z,60.93
2022-12-15T14:53:00.095Z,61.10
2022-12-15T14:55:26.486Z,61.54
2022-12-15T14:57:52.909Z,60.88
2022-12-15T15:00:19.365Z,61.10
2022-12-15T15:02:45.815Z,61.64
2022-12-15T15:03:09.323Z,65.79
2022-12-15T15:05:12.282Z,60.92
2022-12-15T15:07:38.641Z,61.04
2022-12-15T15:10:04.992Z,60.49
2022-12-15T15:12:31.330Z,60.84
2022-12-15T15:14:57.701Z,60.48
2022-12-15T15:17:24.048Z,60.16
2022-12-15T15:19:50.398Z,61.54
2022-12-15T15:22:16.738Z,61.61
2022-12-15T15:24:43.086Z,62.33
2022-12-15T15:27:09.476Z,64.57
2022-12-15T15:29:35.899Z,65.58
2022-12-15T15:32:02.303Z,69.35
2022-12-15T15:34:28.698Z,68.66
2022-12-15T15:36:55.083Z,69.51
2022-12-15T15:39:21.441Z,70.03
2022-12-15T15:41:47.815Z,70.14
2022-12-15T15:44:14.166Z,70.23
2022-12-15T15:46:40.579Z,71.02
2022-12-15T15:49:06.961Z,70.58
2022-12-15T15:51:33.333Z,69.97
2022-12-15T15:53:59.710Z,69.10
2022-12-15T15:56:26.063Z,68.16
2022-12-15T15:58:52.397Z,69.30
2022-12-15T16:01:18.878Z,69.31
2022-12-15T16:03:45.427Z,69.38
2022-12-15T16:06:11.839Z,71.05
2022-12-15T16:08:38.190Z,70.10
2022-12-15T16:11:04.546Z,72.14
2022-12-15T16:13:30.962Z,74.91
2022-12-15T16:15:57.475Z,75.43
2022-12-15T16:18:23.891Z,75.71
2022-12-15T16:20:50.271Z,78.51
2022-12-15T16:23:16.645Z,76.96
2022-12-15T16:25:50.307Z,76.51
2022-12-15T16:28:17.241Z,75.36
2022-12-15T16:30:43.635Z,76.69
2022-12-15T16:33:09.997Z,76.34
2022-12-15T16:35:36.383Z,76.00
2022-12-15T16:38:02.733Z,76.52
2022-12-15T16:40:29.106Z,79.12
2022-12-15T16:42:55.496Z,76.55
2022-12-15T16:45:21.855Z,76.72
2022-12-15T16:47:48.196Z,77.60
2022-12-15T16:50:14.576Z,79.46
2022-12-15T16:52:40.952Z,78.42
2022-12-15T16:55:07.331Z,78.52
2022-12-15T16:57:33.656Z,77.44
2022-12-15T16:59:59.990Z,77.03
2022-12-15T17:02:29.751Z,77.92
2022-12-15T17:04:56.306Z,78.36
2022-12-15T17:07:22.645Z,78.01
2022-12-15T17:09:49.024Z,78.12
2022-12-15T17:12:15.369Z,79.89
2022-12-15T17:14:41.701Z,78.62
2022-12-15T17:17:08.031Z,78.48
2022-12-15T17:19:34.429Z,79.15
2022-12-15T17:22:00.807Z,81.21
2022-12-15T17:24:27.188Z,81.10
2022-12-15T17:26:53.529Z,79.65
2022-12-15T17:29:19.858Z,78.98
2022-12-15T17:31:46.333Z,77.92
2022-12-15T17:34:12.808Z,79.17
2022-12-15T17:36:39.189Z,80.04
2022-12-15T17:39:05.528Z,79.60
2022-12-15T17:44:35.549Z,79.15
2022-12-15T17:47:03.091Z,78.99
2022-12-15T17:49:35.087Z,78.67
2022-12-15T17:52:02.623Z,80.67
2022-12-15T17:54:28.982Z,84.17
2022-12-15T17:56:55.315Z,82.21
2022-12-15T17:59:21.681Z,82.23
2022-12-15T18:01:48.238Z,81.21
2022-12-15T18:04:14.755Z,81.24
2022-12-15T18:06:41.146Z,81.50
2022-12-15T18:09:07.483Z,83.67
2022-12-15T18:11:33.855Z,82.96
2022-12-15T18:14:00.240Z,82.81
2022-12-15T18:16:26.666Z,83.62
2022-12-15T18:18:53.068Z,83.71
2022-12-15T18:21:19.451Z,84.96
2022-12-15T18:23:45.838Z,82.93
2022-12-15T18:26:12.179Z,80.77
2022-12-15T18:28:38.516Z,82.15
2022-12-15T18:31:04.916Z,81.20
2022-12-15T18:33:31.479Z,82.03
2022-12-15T18:35:58.117Z,81.62
2022-12-15T18:38:24.479Z,81.97
2022-12-15T18:40:50.858Z,82.72
2022-12-15T18:43:17.247Z,82.55
2022-12-15T18:45:43.636Z,80.84
2022-12-15T18:48:09.983Z,81.52
2022-12-15T18:50:36.386Z,81.83
2022-12-15T18:53:02.779Z,82.51
2022-12-15T18:55:29.177Z,83.57
2022-12-15T18:57:55.581Z,82.92
2022-12-15T19:00:23.053Z,82.72
2022-12-15T19:02:49.487Z,82.85
2022-12-15T19:05:15.940Z,82.53
2022-12-15T19:07:42.317Z,82.70
2022-12-15T19:10:08.697Z,82.24
2022-12-15T19:12:35.030Z,83.32
2022-12-15T19:15:01.349Z,82.60
2022-12-15T19:17:27.739Z,83.44
2022-12-15T19:19:54.119Z,84.37
2022-12-15T19:22:20.508Z,83.54
2022-12-15T19:24:46.852Z,83.43
2022-12-15T19:27:13.220Z,83.14
2022-12-15T19:29:39.598Z,84.56
2022-12-15T19:32:05.948Z,83.59
2022-12-15T19:34:32.276Z,84.58
2022-12-15T19:36:58.596Z,84.01
2022-12-15T19:39:24.920Z,84.35
2022-12-15T19:41:51.247Z,84.98
2022-12-15T19:44:17.607Z,84.54
2022-12-15T19:46:43.984Z,83.79
2022-12-15T19:49:10.366Z,84.81
2022-12-15T19:51:36.710Z,84.16
2022-12-15T19:54:03.072Z,84.28
2022-12-15T19:56:29.410Z,82.93
2022-12-15T19:58:55.793Z,82.38
2022-12-15T20:01:22.453Z,82.36
2022-12-15T20:03:48.955Z,83.25
2022-12-15T20:06:15.358Z,81.88
2022-12-15T20:08:41.693Z,81.89
2022-12-15T20:11:08.023Z,82.47
2022-12-15T20:13:35.043Z,82.53
2022-12-15T20:16:01.997Z,82.04
2022-12-15T20:18:28.386Z,82.34
2022-12-15T20:20:54.791Z,81.87
2022-12-15T20:23:21.157Z,82.51
2022-12-15T20:25:47.538Z,81.09
2022-12-15T20:28:13.924Z,80.60
2022-12-15T20:30:40.301Z,81.41
2022-12-15T20:33:06.667Z,82.32
2022-12-15T20:35:33.034Z,82.10
2022-12-15T20:37:59.461Z,81.26
2022-12-15T20:40:25.872Z,82.15
2022-12-15T20:42:52.264Z,80.69
2022-12-15T20:45:18.627Z,80.65
2022-12-15T20:47:45.136Z,80.38
2022-12-15T20:50:11.510Z,81.45
2022-12-15T20:52:37.911Z,81.25
2022-12-15T20:55:04.254Z,79.65
2022-12-15T20:57:30.605Z,81.11
2022-12-15T20:59:56.948Z,78.02
2022-12-15T21:02:23.573Z,79.51
2022-12-15T21:04:50.072Z,78.30
2022-12-15T21:07:16.501Z,77.70
2022-12-15T21:09:42.853Z,79.45
2022-12-15T21:12:09.495Z,79.19
2022-12-15T21:14:35.865Z,78.23
2022-12-15T21:17:02.275Z,78.35
2022-12-15T21:19:28.963Z,78.83
2022-12-15T21:21:55.980Z,79.73
2022-12-15T21:24:22.393Z,77.77
2022-12-15T21:26:48.771Z,76.46
2022-12-15T21:29:15.114Z,77.61
2022-12-15T21:31:41.451Z,75.36
2022-12-15T21:34:07.786Z,76.48
2022-12-15T21:36:34.633Z,76.29
2022-12-15T21:39:01.017Z,77.09
2022-12-15T21:41:27.404Z,76.64
2022-12-15T21:43:54.952Z,77.29
2022-12-15T21:46:26.260Z,76.69
2022-12-15T21:48:54.155Z,76.12
2022-12-15T21:51:21.014Z,74.84
2022-12-15T21:53:47.376Z,78.05
2022-12-15T21:56:13.715Z,77.98
2022-12-15T21:58:40.085Z,75.99
2022-12-15T22:01:06.459Z,77.72
2022-12-15T22:03:32.903Z,77.23
2022-12-15T22:05:59.252Z,78.13
2022-12-15T22:08:25.580Z,77.85
2022-12-15T22:10:52.148Z,77.45
2022-12-15T22:13:18.515Z,77.73
2022-12-15T22:15:44.901Z,77.29
2022-12-15T22:18:11.312Z,75.52
2022-12-15T22:20:37.702Z,74.88
2022-12-15T22:23:04.055Z,76.21
2022-12-15T22:25:30.395Z,75.08
2022-12-15T22:27:56.741Z,76.04
2022-12-15T22:30:23.112Z,76.37
2022-12-15T22:32:49.490Z,76.81
2022-12-15T22:35:15.823Z,76.13
2022-12-15T22:37:42.197Z,76.61
2022-12-15T22:40:08.555Z,76.52
2022-12-15T22:42:34.894Z,74.31
2022-12-15T22:45:02.621Z,75.72
2022-12-15T22:47:28.954Z,75.30
2022-12-15T22:49:55.324Z,73.25
2022-12-15T22:52:21.658Z,75.00
2022-12-15T22:54:48.076Z,75.52
2022-12-15T22:57:14.613Z,73.05
2022-12-15T22:59:41.001Z,73.58
2022-12-15T23:02:07.416Z,74.04
2022-12-15T23:04:34.453Z,73.56
2022-12-15T23:07:00.818Z,72.34
2022-12-15T23:09:27.202Z,74.45
2022-12-15T23:11:53.559Z,72.93
2022-12-15T23:14:21.405Z,72.09
2022-12-15T23:16:47.747Z,74.73
2022-12-15T23:19:14.142Z,71.52
2022-12-15T23:21:40.526Z,73.11
2022-12-15T23:24:06.895Z,73.61
2022-12-15T23:26:33.255Z,72.29
2022-12-15T23:28:59.591Z,73.45
2022-12-15T23:31:25.978Z,71.46
2022-12-15T23:33:52.522Z,73.71
2022-12-15T23:36:18.953Z,74.38
2022-12-15T23:38:45.310Z,73.54
2022-12-15T23:41:11.684Z,74.18
2022-12-15T23:43:38.068Z,74.30
2022-12-15T23:46:04.511Z,73.27
2022-12-15T23:48:30.912Z,72.38
2022-12-15T23:50:57.244Z,72.35
2022-12-15T23:53:23.618Z,70.31
2022-12-15T23:55:49.949Z,71.26
2022-12-15T23:58:18.129Z,72.58
